createdAt,value
2019-01-21T00:01:41.763Z,13.90
2019-01-21T00:04:11.412Z,14.98
2019-01-21T00:06:40.978Z,14.70
2019-01-21T00:09:10.970Z,14.60
2019-01-21T00:11:40.507Z,15.33
2019-01-21T00:14:10.153Z,17.17
2019-01-21T00:16:39.856Z,14.53
2019-01-21T00:19:09.610Z,16.62
2019-01-21T00:21:39.819Z,17.32
2019-01-21T00:24:09.496Z,16.73
2019-01-21T00:26:39.025Z,17.70
2019-01-21T00:29:08.715Z,18.03
2019-01-21T00:31:38.431Z,17.98
2019-01-21T00:34:08.136Z,18.17
2019-01-21T00:36:37.639Z,20.53
2019-01-21T00:39:08.218Z,20.15
2019-01-21T00:41:37.796Z,19.80
2019-01-21T00:44:07.378Z,19.33
2019-01-21T00:46:37.129Z,18.52
2019-01-21T00:49:06.965Z,19.80
2019-01-21T00:51:36.584Z,18.63
2019-01-21T00:54:06.343Z,19.97
2019-01-21T00:56:36.004Z,20.07
2019-01-21T00:59:05.693Z,20.57
2019-01-21T01:01:35.469Z,20.80
2019-01-21T01:04:06.539Z,20.33
2019-01-21T01:06:36.202Z,22.20
2019-01-21T01:09:08.349Z,22.60
2019-01-21T01:11:37.940Z,21.53
2019-01-21T01:14:07.699Z,22.13
2019-01-21T01:16:37.433Z,22.30
2019-01-21T01:19:07.296Z,21.15
2019-01-21T01:21:36.824Z,22.07
2019-01-21T01:24:06.390Z,21.60
2019-01-21T01:26:36.206Z,21.67
2019-01-21T01:29:05.757Z,23.57
2019-01-21T01:31:35.274Z,21.60
2019-01-21T01:34:05.096Z,20.87
2019-01-21T01:36:34.799Z,20.73
2019-01-21T01:39:06.028Z,21.37
2019-01-21T01:41:35.641Z,20.73
2019-01-21T01:44:05.218Z,19.87
2019-01-21T01:46:35.486Z,19.63
2019-01-21T01:49:05.202Z,19.00
2019-01-21T01:51:34.920Z,20.00
2019-01-21T01:54:04.841Z,19.63
2019-01-21T01:56:34.524Z,19.27
2019-01-21T01:59:04.162Z,19.17
2019-01-21T02:01:33.968Z,18.07
2019-01-21T02:04:03.612Z,18.20
2019-01-21T02:06:33.468Z,19.03
2019-01-21T02:09:03.295Z,16.27
2019-01-21T02:11:32.920Z,17.70
2019-01-21T02:14:02.747Z,17.03
2019-01-21T02:16:32.404Z,16.37
2019-01-21T02:19:02.089Z,16.47
2019-01-21T02:21:33.500Z,16.37
2019-01-21T02:24:07.162Z,14.87
2019-01-21T02:27:06.769Z,15.03
2019-01-21T02:29:58.341Z,23.97
2019-01-21T02:33:14.970Z,15.10
2019-01-21T02:36:15.197Z,14.90
2019-01-21T02:39:23.226Z,14.07
2019-01-21T02:42:28.253Z,14.17
2019-01-21T02:45:38.911Z,13.33
2019-01-21T02:48:47.222Z,13.27
2019-01-21T02:51:42.858Z,13.37
2019-01-21T02:54:52.335Z,13.77
2019-01-21T02:58:09.721Z,13.40
2019-01-21T03:00:47.018Z,12.93
2019-01-21T03:04:06.462Z,12.00
2019-01-21T03:06:57.935Z,12.00
2019-01-21T03:10:22.676Z,12.03
2019-01-21T03:13:26.922Z,11.10
2019-01-21T03:16:58.290Z,11.13
2019-01-21T03:19:52.702Z,10.20
2019-01-21T03:23:01.557Z,10.97
2019-01-21T03:26:02.709Z,9.60
2019-01-21T03:28:58.201Z,10.17
2019-01-21T03:32:20.630Z,9.03
2019-01-21T03:35:49.566Z,8.50
2019-01-21T03:39:01.529Z,7.20
2019-01-21T03:42:15.347Z,6.93
2019-01-21T03:45:33.180Z,6.50
2019-01-21T03:48:16.727Z,5.57
2019-01-21T03:51:25.084Z,5.13
2019-01-21T03:54:21.982Z,4.90
2019-01-21T03:57:31.658Z,4.13
2019-01-21T04:00:33.464Z,4.23
2019-01-21T04:03:42.123Z,4.37
2019-01-21T04:06:36.865Z,4.50
2019-01-21T04:09:56.109Z,3.80
2019-01-21T04:13:12.522Z,4.10
2019-01-21T04:16:07.005Z,4.27
2019-01-21T04:19:08.945Z,4.20
2019-01-21T04:22:02.130Z,4.60
2019-01-21T04:24:56.846Z,4.20
2019-01-21T04:28:04.386Z,5.03
2019-01-21T04:30:53.107Z,4.83
2019-01-21T04:34:21.607Z,4.73
2019-01-21T04:37:30.440Z,4.10
2019-01-21T04:40:28.342Z,4.77
2019-01-21T04:43:35.661Z,4.60
2019-01-21T04:46:39.602Z,4.70
2019-01-21T04:49:47.911Z,5.13
2019-01-21T04:52:49.795Z,5.00
2019-01-21T04:56:18.479Z,4.50
2019-01-21T04:59:20.639Z,5.13
2019-01-21T05:02:25.645Z,5.03
2019-01-21T05:05:42.410Z,5.40
2019-01-21T05:08:57.277Z,5.67
2019-01-21T05:11:57.285Z,5.50
2019-01-21T05:14:55.233Z,5.77
2019-01-21T05:18:20.881Z,6.10
2019-01-21T05:21:29.624Z,5.87
2019-01-21T05:24:43.251Z,5.60
2019-01-21T05:27:52.282Z,6.03
2019-01-21T05:30:36.549Z,6.60
2019-01-21T05:33:22.358Z,6.70
2019-01-21T05:36:39.275Z,6.80
2019-01-21T05:39:44.101Z,7.33
2019-01-21T05:42:43.271Z,7.20
2019-01-21T05:45:43.853Z,7.17
2019-01-21T05:48:40.592Z,7.97
2019-01-21T05:51:52.576Z,7.50
2019-01-21T05:55:02.407Z,7.90
2019-01-21T05:58:09.940Z,7.30
2019-01-21T06:00:56.041Z,8.10
2019-01-21T06:04:06.144Z,5.43
2019-01-21T06:07:01.499Z,4.90
2019-01-21T06:10:10.570Z,4.90
2019-01-21T06:13:06.856Z,5.80
2019-01-21T06:16:10.685Z,5.17
2019-01-21T06:19:28.966Z,4.70
2019-01-21T06:22:49.985Z,5.00
2019-01-21T06:26:09.368Z,4.80
2019-01-21T06:29:01.692Z,5.00
2019-01-21T06:31:58.027Z,4.20
2019-01-21T06:35:07.802Z,4.80
2019-01-21T06:38:17.838Z,4.30
2019-01-21T06:41:17.818Z,4.43
2019-01-21T06:44:02.172Z,3.63
2019-01-21T06:47:21.368Z,3.63
2019-01-21T06:50:08.670Z,3.50
2019-01-21T06:53:19.021Z,4.30
2019-01-21T06:56:17.564Z,3.10
2019-01-21T06:59:35.972Z,3.30
2019-01-21T07:05:13.501Z,3.33
2019-01-21T07:08:19.316Z,3.20
2019-01-21T07:11:08.151Z,3.17
2019-01-21T07:14:18.680Z,2.43
2019-01-21T07:17:13.831Z,2.90
2019-01-21T07:20:05.431Z,2.77
2019-01-21T07:22:59.952Z,2.67
2019-01-21T07:26:16.500Z,2.73
2019-01-21T07:29:41.666Z,3.17
2019-01-21T07:32:49.235Z,2.77
2019-01-21T07:35:55.638Z,3.10
2019-01-21T07:38:56.735Z,2.80
2019-01-21T07:42:26.606Z,2.60
2019-01-21T07:45:41.562Z,2.90
2019-01-21T07:48:52.032Z,3.07
2019-01-21T07:52:03.598Z,3.30
2019-01-21T07:54:57.103Z,3.40
2019-01-21T07:58:06.645Z,3.73
2019-01-21T08:01:00.634Z,4.00
2019-01-21T08:03:55.394Z,4.73
2019-01-21T08:06:43.720Z,3.83
2019-01-21T08:09:44.203Z,3.80
2019-01-21T08:12:40.009Z,3.90
2019-01-21T08:15:51.761Z,3.67
2019-01-21T08:19:00.235Z,4.10
2019-01-21T08:21:54.010Z,3.73
2019-01-21T08:25:10.413Z,3.00
2019-01-21T08:28:26.864Z,2.93
2019-01-21T08:31:10.218Z,2.70
2019-01-21T08:34:19.440Z,2.70
2019-01-21T08:37:31.907Z,2.40
2019-01-21T08:40:25.548Z,2.83
2019-01-21T08:43:39.210Z,2.50
2019-01-21T08:46:52.790Z,2.47
2019-01-21T08:49:45.437Z,1.70
2019-01-21T08:52:41.919Z,2.10
2019-01-21T08:55:51.367Z,2.00
2019-01-21T08:59:10.635Z,1.60
2019-01-21T09:01:48.930Z,1.70
2019-01-21T09:05:04.637Z,1.60
2019-01-21T09:07:54.072Z,1.90
2019-01-21T09:11:22.716Z,1.70
2019-01-21T09:14:04.455Z,1.40
2019-01-21T09:17:14.140Z,1.50
2019-01-21T09:20:20.223Z,1.80
2019-01-21T09:23:13.183Z,1.40
2019-01-21T09:26:23.349Z,1.50
2019-01-21T09:29:42.694Z,1.70
2019-01-21T09:32:37.203Z,1.20
2019-01-21T09:35:28.957Z,1.53
2019-01-21T09:38:41.189Z,1.70
2019-01-21T09:42:03.381Z,1.80
2019-01-21T09:44:42.362Z,1.40
2019-01-21T09:47:10.087Z,1.53
2019-01-21T09:49:43.552Z,1.40
2019-01-21T09:52:20.665Z,1.80
2019-01-21T09:54:50.712Z,1.93
2019-01-21T09:57:27.163Z,1.90
2019-01-21T10:00:01.536Z,2.47
2019-01-21T10:02:37.539Z,3.03
2019-01-21T10:05:16.784Z,1.70
2019-01-21T10:08:31.839Z,1.57
2019-01-21T10:11:23.176Z,1.70
2019-01-21T10:14:42.818Z,1.80
2019-01-21T10:17:21.408Z,1.77
2019-01-21T10:20:02.096Z,1.90
2019-01-21T10:22:43.517Z,1.80
2019-01-21T10:25:55.279Z,1.50
2019-01-21T10:29:12.779Z,1.87
2019-01-21T10:32:41.399Z,1.60
2019-01-21T10:35:53.645Z,1.40
2019-01-21T10:38:51.984Z,1.10
2019-01-21T10:41:55.879Z,1.23
2019-01-21T10:45:04.020Z,1.30
2019-01-21T10:47:39.585Z,1.40
2019-01-21T10:50:33.356Z,1.30
2019-01-21T10:53:33.698Z,1.10
2019-01-21T10:56:27.747Z,1.10
2019-01-21T10:59:35.226Z,1.20
2019-01-21T11:03:03.724Z,1.13
2019-01-21T11:06:24.968Z,1.30
2019-01-21T11:09:31.177Z,1.30
2019-01-21T11:12:32.305Z,1.47
2019-01-21T11:15:50.501Z,1.70
2019-01-21T11:18:57.976Z,2.10
2019-01-21T11:21:36.633Z,2.87
2019-01-21T11:24:47.710Z,3.50
2019-01-21T11:27:31.048Z,2.50
2019-01-21T11:30:31.797Z,2.13
2019-01-21T11:33:41.340Z,2.30
2019-01-21T11:36:33.824Z,2.60
2019-01-21T11:39:35.966Z,2.87
2019-01-21T11:42:42.050Z,2.57
2019-01-21T11:46:02.543Z,2.50
2019-01-21T11:48:58.724Z,2.60
2019-01-21T11:52:17.717Z,2.20
2019-01-21T11:55:34.815Z,2.60
2019-01-21T11:58:31.707Z,2.27
2019-01-21T12:01:37.844Z,2.10
2019-01-21T12:04:26.375Z,2.17
2019-01-21T12:07:41.319Z,2.43
2019-01-21T12:10:45.016Z,2.50
2019-01-21T12:13:31.607Z,2.40
2019-01-21T12:16:35.493Z,2.30
2019-01-21T12:19:30.120Z,2.60
2019-01-21T12:22:29.824Z,2.10
2019-01-21T12:25:09.271Z,2.33
2019-01-21T12:28:46.680Z,1.80
2019-01-21T12:31:50.145Z,1.87
2019-01-21T12:35:09.405Z,2.80
2019-01-21T12:38:16.360Z,1.70
2019-01-21T12:41:21.618Z,1.80
2019-01-21T12:44:21.274Z,1.60
2019-01-21T12:47:07.344Z,2.10
2019-01-21T12:50:16.168Z,2.10
2019-01-21T12:53:04.912Z,1.80
2019-01-21T12:56:21.113Z,1.87
2019-01-21T12:59:20.858Z,1.70
2019-01-21T13:02:11.065Z,1.80
2019-01-21T13:05:02.577Z,2.00
2019-01-21T13:07:43.284Z,2.10
2019-01-21T13:10:55.659Z,2.17
2019-01-21T13:14:06.950Z,1.87
2019-01-21T13:17:06.454Z,2.10
2019-01-21T13:20:09.375Z,1.80
2019-01-21T13:23:04.380Z,2.33
2019-01-21T13:26:03.956Z,2.10
2019-01-21T13:29:10.011Z,4.87
2019-01-21T13:32:13.565Z,1.60
2019-01-21T13:35:26.883Z,1.40
2019-01-21T13:38:28.960Z,1.30
2019-01-21T13:41:19.866Z,1.33
2019-01-21T13:44:10.568Z,1.00
2019-01-21T13:47:22.452Z,0.97
2019-01-21T13:50:13.649Z,1.40
2019-01-21T13:53:35.831Z,1.30
2019-01-21T13:57:00.935Z,1.40
2019-01-21T14:00:07.458Z,1.40
2019-01-21T14:03:07.709Z,1.57
2019-01-21T14:06:29.107Z,1.30
2019-01-21T14:09:37.784Z,1.60
2019-01-21T14:12:26.193Z,1.50
2019-01-21T14:15:22.785Z,1.53
2019-01-21T14:18:28.821Z,1.47
2019-01-21T14:21:29.517Z,1.70
2019-01-21T14:24:56.198Z,1.90
2019-01-21T14:27:54.434Z,1.60
2019-01-21T14:30:53.124Z,1.43
2019-01-21T14:33:48.309Z,2.10
2019-01-21T14:36:46.835Z,1.70
2019-01-21T14:39:56.336Z,1.90
2019-01-21T14:43:08.499Z,1.80
2019-01-21T14:46:10.314Z,1.27
2019-01-21T14:49:04.812Z,1.80
2019-01-21T14:52:19.722Z,2.20
2019-01-21T14:55:29.076Z,1.70
2019-01-21T14:59:00.883Z,1.90
2019-01-21T15:01:56.460Z,1.90
2019-01-21T15:05:02.350Z,1.60
2019-01-21T15:07:53.186Z,1.80
2019-01-21T15:10:59.575Z,2.10
2019-01-21T15:14:28.202Z,2.00
2019-01-21T15:17:38.779Z,1.90
2019-01-21T15:20:30.475Z,2.13
2019-01-21T15:23:36.430Z,2.40
2019-01-21T15:26:55.808Z,2.33
2019-01-21T15:29:47.913Z,2.40
2019-01-21T15:32:46.838Z,2.80
2019-01-21T15:35:56.202Z,2.70
2019-01-21T15:39:01.277Z,2.80
2019-01-21T15:42:02.055Z,2.70
2019-01-21T15:45:24.453Z,3.20
2019-01-21T15:48:21.538Z,3.30
2019-01-21T15:51:41.106Z,3.67
2019-01-21T15:54:54.243Z,4.10
2019-01-21T15:57:32.597Z,3.77
2019-01-21T16:00:58.093Z,3.77
2019-01-21T16:04:12.058Z,4.53
2019-01-21T16:07:37.303Z,4.47
2019-01-21T16:10:51.414Z,4.70
2019-01-21T16:13:57.611Z,4.97
2019-01-21T16:17:03.983Z,4.70
2019-01-21T16:19:41.270Z,5.17
2019-01-21T16:22:57.904Z,4.93
2019-01-21T16:26:23.012Z,5.10
2019-01-21T16:29:42.728Z,5.70
2019-01-21T16:32:36.322Z,5.43
2019-01-21T16:35:34.067Z,5.40
2019-01-21T16:38:27.650Z,5.90
2019-01-21T16:41:49.768Z,5.53
2019-01-21T16:44:19.370Z,5.63
2019-01-21T16:46:49.116Z,6.43
2019-01-21T16:49:18.781Z,6.40
2019-01-21T16:51:48.425Z,6.30
2019-01-21T16:54:18.014Z,6.50
2019-01-21T16:56:47.965Z,6.93
2019-01-21T16:59:17.570Z,7.13
2019-01-21T17:01:47.407Z,7.63
2019-01-21T17:04:17.151Z,7.57
2019-01-21T17:06:46.726Z,7.33
2019-01-21T17:09:16.580Z,7.87
2019-01-21T17:11:46.452Z,7.90
2019-01-21T17:14:16.117Z,8.63
2019-01-21T17:16:45.722Z,8.63
2019-01-21T17:19:15.501Z,7.20
2019-01-21T17:21:45.237Z,8.67
2019-01-21T17:24:14.967Z,8.07
2019-01-21T17:26:44.696Z,7.97
2019-01-21T17:29:14.275Z,8.60
2019-01-21T17:31:43.856Z,9.40
2019-01-21T17:34:13.666Z,8.30
2019-01-21T17:36:43.318Z,8.20
2019-01-21T17:39:12.879Z,8.70
2019-01-21T17:41:42.884Z,8.63
2019-01-21T17:44:12.484Z,9.20
2019-01-21T17:46:42.034Z,9.60
2019-01-21T17:49:11.871Z,9.80
2019-01-21T17:51:42.572Z,9.80
2019-01-21T17:54:12.187Z,9.93
2019-01-21T17:56:42.248Z,10.40
2019-01-21T17:59:11.933Z,10.37
2019-01-21T18:01:41.495Z,10.53
2019-01-21T18:04:11.232Z,11.37
2019-01-21T18:06:41.038Z,10.37
2019-01-21T18:09:11.321Z,11.37
2019-01-21T18:11:41.608Z,11.03
2019-01-21T18:14:11.328Z,11.27
2019-01-21T18:16:40.929Z,11.20
2019-01-21T18:19:10.633Z,11.13
2019-01-21T18:21:40.475Z,11.00
2019-01-21T18:24:10.011Z,10.63
2019-01-21T18:26:39.809Z,11.30
2019-01-21T18:29:09.582Z,11.07
2019-01-21T18:31:39.138Z,10.60
2019-01-21T18:34:09.071Z,11.60
2019-01-21T18:36:38.695Z,11.33
2019-01-21T18:39:14.281Z,10.70
2019-01-21T18:41:43.839Z,10.23
2019-01-21T18:44:13.643Z,10.33
2019-01-21T18:46:43.486Z,9.80
2019-01-21T18:49:13.338Z,9.00
2019-01-21T18:51:46.652Z,9.23
2019-01-21T18:54:14.491Z,8.77
2019-01-21T18:56:44.001Z,9.77
2019-01-21T18:59:13.649Z,11.10
2019-01-21T19:01:43.560Z,11.00
2019-01-21T19:04:13.469Z,10.40
2019-01-21T19:06:43.132Z,10.27
2019-01-21T19:09:12.973Z,10.07
2019-01-21T19:11:42.667Z,11.63
2019-01-21T19:14:12.211Z,11.33
2019-01-21T19:16:42.119Z,18.23
2019-01-21T19:19:12.066Z,11.27
2019-01-21T19:21:41.724Z,11.70
2019-01-21T19:24:11.358Z,11.83
2019-01-21T19:26:41.011Z,12.07
2019-01-21T19:29:10.606Z,12.30
2019-01-21T19:31:40.410Z,12.50
2019-01-21T19:34:10.394Z,11.80
2019-01-21T19:36:40.097Z,12.63
2019-01-21T19:39:10.441Z,12.27
2019-01-21T19:41:40.239Z,12.40
2019-01-21T19:44:09.907Z,12.50
2019-01-21T19:46:44.080Z,12.90
2019-01-21T19:49:11.707Z,12.60
2019-01-21T19:51:41.517Z,12.60
2019-01-21T19:54:11.379Z,11.77
2019-01-21T19:56:41.223Z,11.67
2019-01-21T19:59:10.793Z,12.73
2019-01-21T20:01:40.584Z,13.20
2019-01-21T20:04:10.452Z,12.37
2019-01-21T20:06:40.333Z,13.00
2019-01-21T20:09:10.425Z,13.43
2019-01-21T20:11:40.296Z,12.47
2019-01-21T20:14:10.071Z,11.33
2019-01-21T20:16:39.760Z,13.57
2019-01-21T20:19:09.626Z,11.83
2019-01-21T20:21:39.413Z,12.77
2019-01-21T20:24:09.171Z,12.60
2019-01-21T20:26:39.032Z,11.87
2019-01-21T20:29:08.843Z,12.10
2019-01-21T20:31:38.636Z,12.97
2019-01-21T20:34:08.586Z,12.77
2019-01-21T20:36:38.333Z,12.67
2019-01-21T20:39:10.300Z,13.63
2019-01-21T20:41:40.810Z,12.80
2019-01-21T20:44:10.514Z,15.03
2019-01-21T20:46:40.482Z,12.97
2019-01-21T20:49:10.041Z,12.70
2019-01-21T20:51:39.949Z,12.07
2019-01-21T20:54:09.809Z,13.33
2019-01-21T20:56:39.548Z,13.30
2019-01-21T20:59:09.690Z,12.73
2019-01-21T21:01:39.499Z,13.07
2019-01-21T21:04:09.013Z,13.20
2019-01-21T21:06:40.145Z,12.33
2019-01-21T21:09:13.007Z,12.87
2019-01-21T21:11:42.447Z,13.77
2019-01-21T21:14:13.112Z,13.70
2019-01-21T21:16:42.982Z,13.27
2019-01-21T21:19:12.720Z,13.03
2019-01-21T21:21:42.458Z,13.63
2019-01-21T21:24:12.433Z,13.00
2019-01-21T21:26:42.074Z,13.27
2019-01-21T21:29:11.820Z,14.57
2019-01-21T21:31:41.738Z,13.40
2019-01-21T21:34:11.491Z,13.93
2019-01-21T21:36:41.195Z,13.77
2019-01-21T21:39:11.431Z,13.63
2019-01-21T21:41:40.927Z,13.73
2019-01-21T21:44:10.546Z,14.40
2019-01-21T21:46:40.216Z,15.03
2019-01-21T21:49:09.890Z,13.13
2019-01-21T21:51:39.570Z,12.37
2019-01-21T21:54:09.359Z,12.47
2019-01-21T21:56:38.993Z,13.17
2019-01-21T21:59:08.531Z,13.83
2019-01-21T22:01:40.154Z,15.00
2019-01-21T22:04:09.601Z,13.87
2019-01-21T22:06:41.326Z,12.93
2019-01-21T22:09:10.840Z,13.70
2019-01-21T22:11:40.741Z,13.23
2019-01-21T22:14:10.548Z,11.73
2019-01-21T22:16:40.167Z,11.70
2019-01-21T22:19:09.667Z,12.50
2019-01-21T22:21:39.479Z,12.77
2019-01-21T22:24:09.315Z,12.80
2019-01-21T22:26:38.935Z,13.70
2019-01-21T22:29:08.716Z,14.17
2019-01-21T22:31:38.257Z,18.63
2019-01-21T22:34:07.732Z,16.47
2019-01-21T22:36:37.939Z,15.93
2019-01-21T22:39:09.246Z,16.07
2019-01-21T22:41:38.754Z,14.60
2019-01-21T22:44:08.573Z,14.57
2019-01-21T22:46:38.157Z,14.77
2019-01-21T22:49:07.873Z,14.67
2019-01-21T22:51:37.664Z,15.23
2019-01-21T22:54:07.144Z,13.90
2019-01-21T22:56:36.980Z,14.43
2019-01-21T22:59:06.950Z,14.23
2019-01-21T23:01:36.978Z,15.77
2019-01-21T23:04:06.531Z,14.50
2019-01-21T23:06:36.387Z,15.17
2019-01-21T23:09:08.963Z,14.67
2019-01-21T23:11:38.992Z,14.43
2019-01-21T23:14:08.560Z,14.03
2019-01-21T23:16:38.271Z,14.47
2019-01-21T23:19:09.546Z,13.87
2019-01-21T23:21:39.104Z,13.30
2019-01-21T23:24:08.577Z,13.27
2019-01-21T23:26:38.561Z,13.77
2019-01-21T23:29:08.341Z,13.47
2019-01-21T23:31:37.792Z,14.47
2019-01-21T23:34:07.382Z,13.90
2019-01-21T23:36:37.019Z,13.47
2019-01-21T23:39:08.601Z,13.07
2019-01-21T23:41:38.176Z,13.83
2019-01-21T23:44:07.745Z,13.67
2019-01-21T23:46:37.567Z,12.40
2019-01-21T23:49:07.087Z,13.77
2019-01-21T23:51:36.698Z,14.03
2019-01-21T23:54:06.568Z,14.23
2019-01-21T23:56:36.172Z,12.90
2019-01-21T23:59:05.988Z,12.67
